Terminal Aerodrome Forecast
Issued by NWS

Home | Current Version | Previous Version | Text Only | Print | Product List | Glossary Off
Versions: 1 2 3 4 5 6 7 8 9 10 11 12 13 14 15

000
FTUS43 KGRB 010826 AAA
TAFRHI
TAF AMD
KRHI 010826Z 0108/0206 03004KT P6SM SCT100 BKN250 WS020/08030KT
     FM011300 04008KT P6SM SCT040 BKN100
     FM011600 05009KT P6SM SCT120 BKN200
     FM020000 04005KT P6SM FEW200=

USA.gov is the U.S. government's official web portal to all federal, state and local government web resources and services.